createdAt,value
2022-08-17T00:02:22.428Z,18.30
2022-08-17T00:04:54.128Z,18.30
2022-08-17T00:07:21.094Z,18.30
2022-08-17T00:09:48.363Z,18.40
2022-08-17T00:12:42.278Z,18.40
2022-08-17T00:15:02.567Z,18.40
2022-08-17T00:17:29.481Z,18.50
2022-08-17T00:19:56.399Z,18.50
2022-08-17T00:22:34.400Z,18.50
2022-08-17T00:25:07.367Z,18.40
2022-08-17T00:27:34.713Z,18.40
2022-08-17T00:30:01.686Z,18.40
2022-08-17T00:33:11.959Z,18.50
2022-08-17T00:35:17.700Z,18.40
2022-08-17T00:37:44.739Z,18.40
2022-08-17T00:40:13.337Z,18.40
2022-08-17T00:42:40.508Z,18.40
2022-08-17T00:45:08.191Z,18.40
2022-08-17T00:47:35.168Z,18.50
2022-08-17T00:50:02.447Z,18.50
2022-08-17T00:52:32.690Z,18.50
2022-08-17T00:54:59.752Z,18.50
2022-08-17T00:57:31.862Z,18.60
2022-08-17T01:00:03.526Z,18.60
2022-08-17T01:02:43.150Z,18.50
2022-08-17T01:05:19.708Z,18.50
2022-08-17T01:07:48.270Z,18.40
2022-08-17T01:11:00.038Z,18.40
2022-08-17T01:13:05.225Z,18.40
2022-08-17T01:15:33.578Z,18.30
2022-08-17T01:18:00.566Z,18.30
2022-08-17T01:20:27.563Z,18.30
2022-08-17T01:22:54.551Z,18.30
2022-08-17T01:25:21.626Z,18.20
2022-08-17T01:27:48.828Z,18.20
2022-08-17T01:30:58.018Z,18.20
2022-08-17T01:33:02.959Z,18.20
2022-08-17T01:35:29.924Z,18.10
2022-08-17T01:37:56.847Z,18.10
2022-08-17T01:40:46.786Z,18.00
2022-08-17T01:43:27.085Z,18.00
2022-08-17T01:46:03.395Z,17.90
2022-08-17T01:48:35.692Z,17.90
2022-08-17T01:51:02.684Z,17.90
2022-08-17T01:53:35.418Z,17.90
2022-08-17T01:56:13.432Z,17.90
2022-08-17T01:58:40.559Z,17.90
2022-08-17T02:01:09.504Z,17.90
2022-08-17T02:03:36.731Z,17.90
2022-08-17T02:06:05.198Z,17.80
2022-08-17T02:08:39.546Z,17.80
2022-08-17T02:11:22.835Z,17.80
2022-08-17T02:13:57.842Z,17.70
2022-08-17T02:16:37.687Z,17.70
2022-08-17T02:19:10.331Z,17.70
2022-08-17T02:21:37.992Z,17.60
2022-08-17T02:24:06.809Z,17.60
2022-08-17T02:26:33.800Z,17.50
2022-08-17T02:29:00.784Z,17.50
2022-08-17T02:31:27.720Z,17.50
2022-08-17T02:34:00.209Z,17.50
2022-08-17T02:36:33.109Z,17.50
2022-08-17T02:39:01.761Z,17.50
2022-08-17T02:41:28.758Z,17.60
2022-08-17T02:43:55.671Z,17.60
2022-08-17T02:46:22.759Z,17.60
2022-08-17T02:48:49.771Z,17.60
2022-08-17T02:51:16.879Z,17.70
2022-08-17T02:53:44.019Z,17.60
2022-08-17T02:56:11.046Z,17.70
2022-08-17T02:58:37.978Z,17.70
2022-08-17T03:01:06.030Z,17.70
2022-08-17T03:03:33.060Z,17.60
2022-08-17T03:06:00.096Z,17.70
2022-08-17T03:08:27.345Z,17.70
2022-08-17T03:10:54.332Z,17.70
2022-08-17T03:13:21.710Z,17.70
2022-08-17T03:15:48.831Z,17.60
2022-08-17T03:18:24.257Z,17.50
2022-08-17T03:20:57.483Z,17.50
2022-08-17T03:23:25.366Z,17.40
2022-08-17T03:25:53.024Z,17.40
2022-08-17T03:28:21.056Z,17.40
2022-08-17T03:30:48.103Z,17.30
2022-08-17T03:33:15.176Z,17.20
2022-08-17T03:35:42.199Z,17.20
2022-08-17T03:38:10.255Z,17.20
2022-08-17T03:40:57.565Z,17.20
2022-08-17T03:43:24.652Z,17.10
2022-08-17T03:46:35.164Z,17.10
2022-08-17T03:49:25.300Z,17.00
2022-08-17T03:52:14.075Z,17.00
2022-08-17T03:55:00.219Z,17.00
2022-08-17T03:57:27.247Z,17.00
2022-08-17T03:59:55.003Z,16.90
2022-08-17T04:02:27.070Z,16.90
2022-08-17T04:04:54.326Z,16.90
2022-08-17T04:07:23.142Z,16.90
2022-08-17T04:09:50.307Z,16.90
2022-08-17T04:12:18.664Z,16.80
2022-08-17T04:14:53.365Z,16.80
2022-08-17T04:17:28.244Z,16.70
2022-08-17T04:19:55.534Z,16.70
2022-08-17T04:22:32.680Z,16.70
2022-08-17T04:25:08.502Z,16.70
2022-08-17T04:27:35.745Z,16.70
2022-08-17T04:30:02.730Z,16.70
2022-08-17T04:33:00.841Z,16.70
2022-08-17T04:35:21.106Z,16.70
2022-08-17T04:37:48.159Z,16.70
2022-08-17T04:40:33.660Z,16.70
2022-08-17T04:43:08.815Z,16.70
2022-08-17T04:45:54.903Z,16.80
2022-08-17T04:48:29.715Z,16.80
2022-08-17T04:51:07.807Z,16.90
2022-08-17T04:53:34.773Z,16.90
2022-08-17T04:56:01.757Z,16.90
2022-08-17T04:58:28.736Z,16.90
2022-08-17T05:00:55.736Z,16.90
2022-08-17T05:03:22.661Z,16.90
2022-08-17T05:05:49.987Z,16.90
2022-08-17T05:08:18.680Z,16.80
2022-08-17T05:10:45.924Z,16.80
2022-08-17T05:13:18.984Z,16.80
2022-08-17T05:15:47.710Z,16.70
2022-08-17T05:18:15.396Z,16.70
2022-08-17T05:20:42.403Z,16.80
2022-08-17T05:23:12.858Z,16.70
2022-08-17T05:25:42.049Z,16.70
2022-08-17T05:28:14.915Z,16.70
2022-08-17T05:30:43.295Z,16.80
2022-08-17T05:33:20.058Z,16.80
2022-08-17T05:35:48.358Z,16.80
2022-08-17T05:38:16.439Z,16.80
2022-08-17T05:40:43.826Z,16.80
2022-08-17T05:43:20.238Z,16.80
2022-08-17T05:46:03.985Z,16.80
2022-08-17T05:48:39.916Z,16.80
2022-08-17T05:51:39.400Z,16.90
2022-08-17T05:54:09.149Z,16.90
2022-08-17T05:56:45.137Z,17.00
2022-08-17T05:59:24.156Z,17.10
2022-08-17T06:01:56.878Z,17.20
2022-08-17T06:04:35.652Z,17.30
2022-08-17T06:07:21.164Z,17.40
2022-08-17T06:09:57.194Z,17.50
2022-08-17T06:12:54.317Z,17.50
2022-08-17T06:15:43.891Z,17.60
2022-08-17T06:18:12.154Z,17.60
2022-08-17T06:21:01.635Z,17.70
2022-08-17T06:23:47.330Z,17.80
2022-08-17T06:26:37.280Z,17.90
2022-08-17T06:29:38.984Z,18.00
2022-08-17T06:32:06.358Z,18.00
2022-08-17T06:34:34.047Z,18.10
2022-08-17T06:37:22.128Z,18.20
2022-08-17T06:40:07.809Z,18.30
2022-08-17T06:43:05.777Z,18.40
2022-08-17T06:45:32.130Z,18.70
2022-08-17T06:48:24.907Z,18.90
2022-08-17T06:51:23.766Z,19.10
2022-08-17T06:54:11.279Z,19.50
2022-08-17T06:56:59.534Z,19.90
2022-08-17T06:59:54.626Z,20.20
2022-08-17T07:02:52.194Z,20.30
2022-08-17T07:05:23.056Z,20.50
2022-08-17T07:08:02.971Z,20.50
2022-08-17T07:10:37.134Z,20.40
2022-08-17T07:13:33.761Z,20.30
2022-08-17T07:16:17.910Z,20.20
2022-08-17T07:18:44.947Z,20.20
2022-08-17T07:21:34.019Z,20.10
2022-08-17T07:24:11.148Z,20.10
2022-08-17T07:27:10.858Z,20.00
2022-08-17T07:30:11.633Z,20.00
2022-08-17T07:32:45.279Z,20.10
2022-08-17T07:35:12.479Z,20.10
2022-08-17T07:37:54.524Z,20.40
2022-08-17T07:40:34.463Z,20.70
2022-08-17T07:43:25.425Z,20.80
2022-08-17T07:46:29.798Z,20.90
2022-08-17T07:48:59.016Z,20.90
2022-08-17T07:51:48.036Z,20.80
2022-08-17T07:54:22.534Z,20.80
2022-08-17T07:56:53.497Z,20.70
2022-08-17T07:59:23.031Z,20.60
2022-08-17T08:01:58.105Z,20.60
2022-08-17T08:05:02.027Z,20.50
2022-08-17T08:07:34.878Z,20.50
2022-08-17T08:10:25.633Z,20.70
2022-08-17T08:13:05.787Z,20.80
2022-08-17T08:15:39.693Z,20.90
2022-08-17T08:18:53.636Z,21.10
2022-08-17T08:21:21.416Z,21.10
2022-08-17T08:23:57.585Z,21.00
2022-08-17T08:26:46.524Z,20.80
2022-08-17T08:29:38.037Z,20.70
2022-08-17T08:32:42.939Z,20.70
2022-08-17T08:35:29.746Z,20.70
2022-08-17T08:38:17.876Z,20.70
2022-08-17T08:41:10.007Z,20.60
2022-08-17T08:43:55.132Z,20.60
2022-08-17T08:46:40.751Z,20.60
2022-08-17T08:49:58.958Z,20.90
2022-08-17T08:52:59.610Z,21.00
2022-08-17T08:55:47.647Z,21.20
2022-08-17T08:58:50.559Z,21.20
2022-08-17T09:01:28.124Z,21.40
2022-08-17T09:04:24.244Z,21.50
2022-08-17T09:07:07.796Z,21.60
2022-08-17T09:09:59.440Z,21.60
2022-08-17T09:12:34.690Z,21.60
2022-08-17T09:15:13.011Z,21.50
2022-08-17T09:18:14.674Z,21.70
2022-08-17T09:20:50.461Z,21.70
2022-08-17T09:23:35.556Z,21.90
2022-08-17T09:26:25.466Z,22.90
2022-08-17T09:28:55.943Z,23.90
2022-08-17T09:31:32.755Z,24.40
2022-08-17T09:34:00.310Z,24.50
2022-08-17T09:36:33.126Z,24.20
2022-08-17T09:39:24.173Z,24.20
2022-08-17T09:42:14.439Z,23.90
2022-08-17T09:44:52.853Z,23.70
2022-08-17T09:47:30.709Z,23.50
2022-08-17T09:50:09.743Z,23.50
2022-08-17T09:52:36.759Z,23.50
2022-08-17T09:55:04.005Z,23.40
2022-08-17T09:57:52.993Z,23.40
2022-08-17T10:00:20.184Z,23.30
2022-08-17T10:02:59.059Z,23.50
2022-08-17T10:05:48.477Z,23.70
2022-08-17T10:08:27.707Z,23.70
2022-08-17T10:11:07.113Z,23.70
2022-08-17T10:13:39.089Z,23.60
2022-08-17T10:16:37.400Z,23.90
2022-08-17T10:19:22.069Z,24.30
2022-08-17T10:22:14.699Z,24.30
2022-08-17T10:25:23.669Z,24.30
2022-08-17T10:27:59.200Z,24.70
2022-08-17T10:30:28.276Z,24.80
2022-08-17T10:33:03.840Z,24.80
2022-08-17T10:35:45.255Z,24.70
2022-08-17T10:38:25.601Z,24.50
2022-08-17T10:41:04.181Z,24.50
2022-08-17T10:43:42.196Z,24.50
2022-08-17T10:46:39.835Z,24.30
2022-08-17T10:49:18.910Z,24.20
2022-08-17T10:51:53.603Z,24.20
2022-08-17T10:54:38.267Z,24.20
2022-08-17T10:57:23.655Z,24.30
2022-08-17T10:59:51.781Z,24.40
2022-08-17T11:02:33.499Z,24.60
2022-08-17T11:05:25.325Z,24.80
2022-08-17T11:08:23.644Z,25.10
2022-08-17T11:10:52.227Z,24.90
2022-08-17T11:13:52.332Z,25.10
2022-08-17T11:16:50.301Z,25.30
2022-08-17T11:19:36.094Z,25.40
2022-08-17T11:22:10.470Z,25.20
2022-08-17T11:24:48.011Z,25.10
2022-08-17T11:27:27.978Z,24.90
2022-08-17T11:30:01.509Z,24.80
2022-08-17T11:32:54.408Z,24.90
2022-08-17T11:35:22.072Z,25.20
2022-08-17T11:37:51.896Z,25.30
2022-08-17T11:40:37.145Z,25.20
2022-08-17T11:43:33.428Z,25.20
2022-08-17T11:46:06.707Z,25.20
2022-08-17T11:49:08.496Z,25.10
2022-08-17T11:52:01.113Z,25.00
2022-08-17T11:54:33.351Z,25.00
2022-08-17T11:57:02.565Z,24.80
2022-08-17T11:59:46.031Z,24.90
2022-08-17T12:02:32.961Z,24.90
2022-08-17T12:05:12.491Z,25.10
2022-08-17T12:07:45.256Z,25.20
2022-08-17T12:10:13.193Z,25.20
2022-08-17T12:12:43.803Z,25.20
2022-08-17T12:15:19.076Z,25.10
2022-08-17T12:17:53.699Z,25.20
2022-08-17T12:20:24.176Z,25.30
2022-08-17T12:23:09.679Z,25.30
2022-08-17T12:25:52.978Z,25.30
2022-08-17T12:28:26.355Z,25.40
2022-08-17T12:30:53.390Z,25.30
2022-08-17T12:33:27.720Z,25.20
2022-08-17T12:36:07.573Z,25.20
2022-08-17T12:38:36.356Z,25.10
2022-08-17T12:41:24.837Z,25.00
2022-08-17T12:44:14.584Z,24.80
2022-08-17T12:47:04.728Z,24.70
2022-08-17T12:49:39.447Z,24.80
2022-08-17T12:52:27.655Z,24.90
2022-08-17T12:54:59.718Z,24.90
2022-08-17T12:57:34.893Z,25.00
2022-08-17T13:00:17.876Z,25.10
2022-08-17T13:02:52.246Z,24.90
2022-08-17T13:05:23.743Z,24.80
2022-08-17T13:07:51.113Z,24.60
2022-08-17T13:10:27.398Z,24.50
2022-08-17T13:12:58.170Z,24.50
2022-08-17T13:15:32.876Z,24.30
2022-08-17T13:18:09.152Z,24.10
2022-08-17T13:20:36.200Z,24.00
2022-08-17T13:23:12.003Z,24.10
2022-08-17T13:25:39.720Z,24.10
2022-08-17T13:28:06.644Z,24.20
2022-08-17T13:30:33.916Z,24.40
2022-08-17T13:33:20.973Z,24.40
2022-08-17T13:36:07.006Z,24.30
2022-08-17T13:38:47.395Z,24.40
2022-08-17T13:41:34.911Z,24.40
2022-08-17T13:44:01.999Z,24.50
2022-08-17T13:46:31.410Z,24.50
2022-08-17T13:49:05.224Z,24.50
2022-08-17T13:51:36.795Z,24.50
2022-08-17T13:54:05.799Z,24.50
2022-08-17T13:56:45.392Z,24.50
2022-08-17T13:59:17.287Z,24.50
2022-08-17T14:02:05.170Z,24.40
2022-08-17T14:04:32.661Z,24.60
2022-08-17T14:07:08.615Z,24.60
2022-08-17T14:09:54.910Z,24.70
2022-08-17T14:12:25.080Z,24.60
2022-08-17T14:14:52.628Z,24.60
2022-08-17T14:17:19.618Z,24.70
2022-08-17T14:19:46.616Z,24.60
2022-08-17T14:22:40.835Z,24.60
2022-08-17T14:25:10.531Z,24.60
2022-08-17T14:27:52.289Z,24.70
2022-08-17T14:30:25.410Z,24.80
2022-08-17T14:32:52.936Z,24.60
2022-08-17T14:35:22.367Z,24.50
2022-08-17T14:37:50.375Z,24.50
2022-08-17T14:40:20.817Z,24.50
2022-08-17T14:42:48.266Z,24.40
2022-08-17T14:45:31.494Z,24.20
2022-08-17T14:48:04.267Z,24.20
2022-08-17T14:50:31.714Z,24.30
2022-08-17T14:52:59.182Z,24.40
2022-08-17T14:55:28.484Z,24.50
2022-08-17T14:57:55.504Z,24.60
2022-08-17T15:00:22.650Z,24.70
2022-08-17T15:02:54.554Z,24.70
2022-08-17T15:05:23.353Z,24.70
2022-08-17T15:07:50.745Z,24.60
2022-08-17T15:10:18.051Z,24.40
2022-08-17T15:12:45.584Z,24.30
2022-08-17T15:15:14.512Z,24.40
2022-08-17T15:17:46.017Z,24.50
2022-08-17T15:20:18.685Z,24.50
2022-08-17T15:22:46.495Z,24.60
2022-08-17T15:25:13.583Z,24.60
2022-08-17T15:27:40.714Z,24.60
2022-08-17T15:30:08.685Z,24.60
2022-08-17T15:32:38.192Z,24.50
2022-08-17T15:35:05.929Z,24.50
2022-08-17T15:37:33.547Z,24.60
2022-08-17T15:40:01.321Z,24.60
2022-08-17T15:42:29.409Z,24.40
2022-08-17T15:44:56.379Z,24.30
2022-08-17T15:47:23.542Z,24.40
2022-08-17T15:49:51.020Z,24.30
2022-08-17T15:52:23.087Z,24.20
2022-08-17T15:54:58.405Z,24.10
2022-08-17T15:57:26.077Z,24.00
2022-08-17T15:59:58.964Z,24.00
2022-08-17T16:03:45.261Z,24.10
2022-08-17T16:05:24.789Z,24.00
2022-08-17T16:07:52.593Z,23.50
2022-08-17T16:10:19.896Z,23.40
2022-08-17T16:12:47.859Z,23.20
2022-08-17T16:15:14.987Z,22.90
2022-08-17T16:17:43.230Z,22.80
2022-08-17T16:20:20.097Z,22.70
2022-08-17T16:22:48.378Z,22.40
2022-08-17T16:25:18.798Z,22.40
2022-08-17T16:27:46.570Z,22.40
2022-08-17T16:30:17.356Z,22.40
2022-08-17T16:32:45.314Z,22.30
2022-08-17T16:35:12.637Z,22.10
2022-08-17T16:37:41.809Z,22.20
2022-08-17T16:40:13.152Z,22.30
2022-08-17T16:42:42.955Z,22.30
2022-08-17T16:45:16.908Z,22.30
2022-08-17T16:47:45.298Z,22.30
2022-08-17T16:50:15.292Z,22.30
2022-08-17T16:52:42.540Z,22.30
2022-08-17T16:55:10.213Z,22.20
2022-08-17T16:57:47.612Z,22.20
2022-08-17T17:00:18.078Z,22.20
2022-08-17T17:02:48.177Z,22.20
2022-08-17T17:05:56.207Z,22.20
2022-08-17T17:08:32.236Z,22.30
2022-08-17T17:11:00.626Z,22.30
2022-08-17T17:13:40.619Z,22.30
2022-08-17T17:16:26.418Z,22.30
2022-08-17T17:19:34.938Z,22.40
2022-08-17T17:22:07.589Z,22.20
2022-08-17T17:24:58.682Z,22.20
2022-08-17T17:27:38.314Z,22.30
2022-08-17T17:30:18.231Z,22.30
2022-08-17T17:32:46.386Z,22.20
2022-08-17T17:35:20.555Z,22.10
2022-08-17T17:37:47.941Z,22.00
2022-08-17T17:40:25.266Z,21.90
2022-08-17T17:42:53.139Z,21.70
2022-08-17T17:45:26.088Z,21.50
2022-08-17T17:47:53.572Z,21.40
2022-08-17T17:50:21.891Z,21.40
2022-08-17T17:53:02.211Z,21.40
2022-08-17T17:55:34.562Z,21.50
2022-08-17T17:58:19.723Z,21.40
2022-08-17T18:01:24.520Z,21.20
2022-08-17T18:04:11.208Z,21.30
2022-08-17T18:06:57.153Z,21.20
2022-08-17T18:10:01.758Z,21.20
2022-08-17T18:12:48.089Z,21.20
2022-08-17T18:15:24.428Z,21.20
2022-08-17T18:18:15.178Z,21.20
2022-08-17T18:20:53.421Z,21.30
2022-08-17T18:23:27.089Z,21.20
2022-08-17T18:25:55.613Z,21.20
2022-08-17T18:28:32.451Z,21.30
2022-08-17T18:31:17.529Z,21.30
2022-08-17T18:33:49.266Z,21.20
2022-08-17T18:36:32.906Z,21.10
2022-08-17T18:39:17.219Z,21.20
2022-08-17T18:41:46.161Z,21.10
2022-08-17T18:44:25.911Z,21.20
2022-08-17T18:47:15.592Z,21.10
2022-08-17T18:49:44.043Z,21.20
2022-08-17T18:52:12.967Z,21.10
2022-08-17T18:54:40.064Z,21.10
2022-08-17T18:57:07.661Z,21.00
2022-08-17T18:59:36.040Z,20.90
2022-08-17T19:02:18.183Z,20.80
2022-08-17T19:05:00.623Z,20.80
2022-08-17T19:07:42.056Z,20.80
2022-08-17T19:10:24.517Z,20.80
2022-08-17T19:13:24.033Z,20.70
2022-08-17T19:16:12.338Z,20.60
2022-08-17T19:19:09.962Z,20.60
2022-08-17T19:21:59.090Z,20.60
2022-08-17T19:24:27.526Z,20.60
2022-08-17T19:27:24.085Z,20.70
2022-08-17T19:29:52.474Z,20.70
2022-08-17T19:32:25.168Z,20.60
2022-08-17T19:34:52.393Z,20.60
2022-08-17T19:37:37.439Z,20.60
2022-08-17T19:40:35.055Z,20.60
2022-08-17T19:43:15.504Z,20.60
2022-08-17T19:45:51.443Z,20.60
2022-08-17T19:48:24.033Z,20.70
2022-08-17T19:50:55.437Z,20.60
2022-08-17T19:54:05.031Z,20.60
2022-08-17T19:57:09.411Z,20.50
2022-08-17T19:59:59.021Z,20.60
2022-08-17T20:02:38.149Z,20.60
2022-08-17T20:05:21.285Z,20.60
2022-08-17T20:07:51.271Z,20.60
2022-08-17T20:10:41.095Z,20.60
2022-08-17T20:13:50.373Z,20.60
2022-08-17T20:16:17.634Z,20.60
2022-08-17T20:19:20.052Z,20.50
2022-08-17T20:22:00.588Z,20.50
2022-08-17T20:24:27.580Z,20.50
2022-08-17T20:26:59.885Z,20.40
2022-08-17T20:29:39.715Z,20.40
2022-08-17T20:32:15.287Z,20.30
2022-08-17T20:34:44.590Z,20.30
2022-08-17T20:37:14.696Z,20.30
2022-08-17T20:39:44.068Z,20.30
2022-08-17T20:42:20.213Z,20.20
2022-08-17T20:45:23.450Z,20.20
2022-08-17T20:48:33.318Z,20.10
2022-08-17T20:50:57.131Z,20.10
2022-08-17T20:53:55.010Z,20.00
2022-08-17T20:56:43.580Z,20.00
2022-08-17T20:59:26.084Z,20.00
2022-08-17T21:02:20.153Z,19.90
2022-08-17T21:05:00.361Z,19.90
2022-08-17T21:07:43.215Z,19.90
2022-08-17T21:10:15.245Z,19.90
2022-08-17T21:12:50.543Z,20.00
2022-08-17T21:15:37.896Z,20.00
2022-08-17T21:18:30.088Z,20.10
2022-08-17T21:21:27.320Z,20.20
2022-08-17T21:24:12.878Z,20.20
2022-08-17T21:26:56.761Z,20.20
2022-08-17T21:29:31.270Z,20.20
2022-08-17T21:32:02.758Z,20.20
2022-08-17T21:34:34.960Z,20.20
2022-08-17T21:37:20.221Z,20.10
2022-08-17T21:39:52.649Z,20.10
2022-08-17T21:42:31.698Z,20.20
2022-08-17T21:45:29.183Z,20.10
2022-08-17T21:48:17.564Z,20.10
2022-08-17T21:50:57.954Z,20.10
2022-08-17T21:53:32.716Z,20.10
2022-08-17T21:56:00.065Z,20.10
2022-08-17T21:58:40.211Z,20.10
2022-08-17T22:01:11.491Z,20.10
2022-08-17T22:03:38.813Z,20.00
2022-08-17T22:06:23.186Z,19.90
2022-08-17T22:09:06.237Z,19.90
2022-08-17T22:11:52.594Z,19.80
2022-08-17T22:14:53.243Z,19.80
2022-08-17T22:17:19.559Z,19.70
2022-08-17T22:19:48.988Z,19.80
2022-08-17T22:22:21.920Z,19.70
2022-08-17T22:24:59.912Z,19.70
2022-08-17T22:27:45.885Z,19.70
2022-08-17T22:30:42.941Z,19.70
2022-08-17T22:33:51.438Z,19.80
2022-08-17T22:36:51.042Z,19.70
2022-08-17T22:39:40.469Z,19.80
2022-08-17T22:42:13.826Z,19.80
2022-08-17T22:44:48.734Z,19.80
2022-08-17T22:47:17.183Z,19.80
2022-08-17T22:49:57.995Z,19.70
2022-08-17T22:52:32.533Z,19.70
2022-08-17T22:55:26.233Z,19.60
2022-08-17T22:58:11.744Z,19.70
2022-08-17T23:00:57.043Z,19.70
2022-08-17T23:03:25.751Z,19.60
2022-08-17T23:06:06.698Z,19.60
2022-08-17T23:08:36.079Z,19.60
2022-08-17T23:11:03.035Z,19.70
2022-08-17T23:13:33.505Z,19.70
2022-08-17T23:16:00.550Z,19.70
2022-08-17T23:18:27.601Z,19.70
2022-08-17T23:20:54.569Z,19.80
2022-08-17T23:23:23.987Z,19.80
2022-08-17T23:25:51.025Z,19.80
2022-08-17T23:28:18.067Z,19.80
2022-08-17T23:30:46.597Z,19.90
2022-08-17T23:33:19.645Z,19.90
2022-08-17T23:35:46.647Z,19.90
2022-08-17T23:38:13.676Z,19.90
2022-08-17T23:40:40.967Z,19.80
2022-08-17T23:43:25.504Z,19.80
2022-08-17T23:45:57.586Z,19.80
2022-08-17T23:48:30.359Z,19.90
2022-08-17T23:51:09.215Z,20.00
2022-08-17T23:53:36.787Z,20.00
2022-08-17T23:56:09.802Z,20.00
2022-08-17T23:58:38.676Z,20.00
